Time;durP1;ratioP1;P1;durP2;ratioP2;P2;SDS_P1;SDS_P2;PMS_P1;PMS_P2;Temp;Humidity;BMP_temperature;BMP_pressure;BME280_temperature;BME280_humidity;BME280_pressure;Samples;Min_cycle;Max_cycle;Signal;HPM_P1;HPM_P2
2022/06/25 00:01:51;;;;;;;11.68;7.30;;;19.50;99.90;;;;;;5083849;28;20044;-76
2022/06/25 00:07:04;;;;;;;10.85;7.50;;;19.50;99.90;;;;;;5129867;27;20088;-76
2022/06/25 00:09:31;;;;;;;13.95;7.70;;;19.50;99.90;;;;;;5096980;28;20067;-76
2022/06/25 00:14:43;;;;;;;11.50;7.25;;;19.40;99.90;;;;;;5096822;28;20050;-76
2022/06/25 00:17:11;;;;;;;11.38;7.70;;;19.30;99.90;;;;;;5097130;28;20431;-76
2022/06/25 00:19:38;;;;;;;11.45;8.13;;;19.20;99.90;;;;;;5096817;28;20044;-76
2022/06/25 00:22:07;;;;;;;9.77;7.50;;;19.20;99.90;;;;;;5101833;28;20538;-78
2022/06/25 00:24:34;;;;;;;11.50;8.13;;;19.20;99.90;;;;;;5103660;28;20089;-76
2022/06/25 00:27:01;;;;;;;9.95;7.20;;;19.20;99.90;;;;;;5110695;28;20033;-76
2022/06/25 00:29:29;;;;;;;10.20;7.47;;;19.10;99.90;;;;;;5078513;28;20399;-76
2022/06/25 00:31:56;;;;;;;9.40;6.90;;;19.00;99.90;;;;;;5078712;28;20445;-76
2022/06/25 00:34:26;;;;;;;11.90;7.10;;;19.00;99.90;;;;;;5076611;28;20048;-76
2022/06/25 00:36:55;;;;;;;14.00;7.60;;;19.00;99.90;;;;;;5096674;28;20036;-78
2022/06/25 00:39:23;;;;;;;9.98;7.65;;;18.90;99.90;;;;;;5112603;28;20044;-76
2022/06/25 00:41:51;;;;;;;10.57;7.53;;;18.80;99.90;;;;;;5086439;28;20093;-77
2022/06/25 00:44:18;;;;;;;11.70;8.05;;;18.70;99.90;;;;;;5098253;28;20039;-76
2022/06/25 00:46:47;;;;;;;11.15;7.30;;;18.70;99.90;;;;;;5119029;28;20122;-76
2022/06/25 00:49:14;;;;;;;11.60;7.55;;;18.70;99.90;;;;;;5129139;28;20103;-76
2022/06/25 00:51:46;;;;;;;10.45;8.02;;;18.70;99.90;;;;;;5109613;28;20044;-76
2022/06/25 00:54:17;;;;;;;14.73;7.50;;;18.80;99.90;;;;;;5103655;28;20044;-77
2022/06/25 00:56:50;;;;;;;13.30;7.40;;;18.80;99.90;;;;;;5120903;28;20028;-76
2022/06/25 00:59:23;;;;;;;9.57;7.95;;;18.80;99.90;;;;;;5098514;28;20104;-76
2022/06/25 01:01:50;;;;;;;10.57;7.05;;;18.80;99.90;;;;;;5098211;28;20070;-77
2022/06/25 01:04:18;;;;;;;9.85;6.68;;;18.80;99.90;;;;;;5115493;28;20093;-77
2022/06/25 01:06:45;;;;;;;12.15;7.40;;;18.90;99.90;;;;;;5115640;28;20085;-76
2022/06/25 01:09:13;;;;;;;11.63;7.03;;;18.90;99.90;;;;;;5116081;28;20048;-77
2022/06/25 01:11:41;;;;;;;19.95;15.13;;;18.90;99.90;;;;;;5098119;28;20051;-76
2022/06/25 01:14:10;;;;;;;11.60;9.52;;;18.80;99.90;;;;;;5097607;28;20044;-76
2022/06/25 01:16:38;;;;;;;14.48;9.43;;;18.80;99.90;;;;;;5098047;28;20041;-76
2022/06/25 01:19:08;;;;;;;9.57;7.50;;;18.70;99.90;;;;;;5098062;28;20078;-76
2022/06/25 01:21:36;;;;;;;12.32;8.35;;;18.70;99.90;;;;;;5097302;28;20445;-77
2022/06/25 01:24:07;;;;;;;11.63;7.40;;;18.70;99.90;;;;;;5097277;28;20051;-76
2022/06/25 01:26:35;;;;;;;9.57;7.00;;;18.70;99.90;;;;;;5098112;28;20500;-77
2022/06/25 01:29:03;;;;;;;10.50;6.72;;;18.60;99.90;;;;;;5097960;28;20068;-77
2022/06/25 01:31:31;;;;;;;12.80;8.65;;;18.60;99.90;;;;;;5097305;28;20048;-76
2022/06/25 01:33:59;;;;;;;10.40;7.57;;;18.40;99.90;;;;;;5096782;28;20043;-77
2022/06/25 01:36:27;;;;;;;11.70;7.47;;;18.40;99.90;;;;;;5084122;28;20423;-77
2022/06/25 01:38:56;;;;;;;10.85;7.57;;;18.30;99.90;;;;;;5077223;28;20519;-76
2022/06/25 01:41:25;;;;;;;9.70;7.30;;;18.30;99.90;;;;;;5114329;28;20042;-76
2022/06/25 01:43:52;;;;;;;13.55;7.63;;;18.20;99.90;;;;;;5115038;28;20040;-76
2022/06/25 01:46:19;;;;;;;10.85;7.75;;;18.20;99.90;;;;;;5097089;28;20040;-76
2022/06/25 01:48:47;;;;;;;13.93;7.40;;;18.20;99.90;;;;;;5097632;28;20047;-77
2022/06/25 01:51:17;;;;;;;12.20;7.78;;;18.30;99.90;;;;;;5114837;28;20516;-76
2022/06/25 01:53:46;;;;;;;12.57;8.23;;;18.30;99.90;;;;;;5095010;28;20074;-77
2022/06/25 01:56:13;;;;;;;13.50;7.75;;;18.20;99.90;;;;;;5095260;28;20491;-77
2022/06/25 01:58:42;;;;;;;10.88;7.57;;;18.20;99.90;;;;;;5076681;28;20051;-76
2022/06/25 02:01:11;;;;;;;11.73;8.00;;;18.20;99.90;;;;;;5110556;28;20475;-75
2022/06/25 02:03:38;;;;;;;11.15;8.02;;;18.10;99.90;;;;;;5083672;27;20095;-76
2022/06/25 02:06:05;;;;;;;12.00;8.40;;;18.10;99.90;;;;;;5107002;22;20036;-74
2022/06/25 02:08:35;;;;;;;9.32;7.95;;;18.10;99.90;;;;;;5063600;28;20045;-74
2022/06/25 02:11:04;;;;;;;13.05;8.10;;;18.00;99.90;;;;;;5104932;28;20043;-74
2022/06/25 02:13:31;;;;;;;15.38;8.82;;;18.00;99.90;;;;;;5067859;28;20044;-75
2022/06/25 02:16:01;;;;;;;9.60;8.45;;;18.00;99.90;;;;;;5072541;28;20040;-74
2022/06/25 02:18:29;;;;;;;11.93;7.68;;;17.90;99.90;;;;;;5063720;28;20053;-74
2022/06/25 02:20:56;;;;;;;11.18;8.20;;;17.90;99.90;;;;;;5054787;28;20115;-74
2022/06/25 02:23:25;;;;;;;13.27;8.35;;;18.00;99.90;;;;;;5066680;28;20056;-74
2022/06/25 02:25:52;;;;;;;12.70;8.35;;;17.90;99.90;;;;;;5075600;28;20048;-74
2022/06/25 02:28:20;;;;;;;11.57;7.68;;;18.00;99.90;;;;;;5092679;28;20046;-74
2022/06/25 02:30:47;;;;;;;9.75;8.57;;;17.90;99.90;;;;;;5089030;28;20040;-74
2022/06/25 02:33:17;;;;;;;15.00;8.15;;;17.90;99.90;;;;;;5065443;28;20047;-74
2022/06/25 02:35:46;;;;;;;12.07;7.93;;;17.80;99.90;;;;;;5076014;28;20054;-75
2022/06/25 02:38:16;;;;;;;13.30;8.38;;;17.70;99.90;;;;;;5066784;28;20399;-75
2022/06/25 02:40:47;;;;;;;10.60;8.27;;;17.70;99.90;;;;;;5076680;28;20135;-74
2022/06/25 02:43:15;;;;;;;13.45;7.97;;;17.70;99.90;;;;;;5036559;28;20055;-75
2022/06/25 02:45:45;;;;;;;15.57;8.68;;;17.70;99.90;;;;;;5036083;28;20515;-75
2022/06/25 02:48:16;;;;;;;15.10;8.50;;;17.70;99.90;;;;;;5065725;28;20044;-75
2022/06/25 02:50:44;;;;;;;13.68;8.40;;;17.70;99.90;;;;;;5077790;28;20043;-75
2022/06/25 02:53:13;;;;;;;11.82;8.60;;;17.80;99.90;;;;;;5076177;28;20137;-75
2022/06/25 03:01:23;;;;;;;13.05;8.88;;;17.80;99.90;;;;;;5057197;28;20384;-75
2022/06/25 03:03:53;;;;;;;14.73;9.45;;;17.80;99.90;;;;;;5056009;28;20128;-74
2022/06/25 03:06:21;;;;;;;12.82;8.88;;;17.80;99.90;;;;;;5064272;28;20059;-74
2022/06/25 03:08:49;;;;;;;17.33;8.50;;;17.80;99.90;;;;;;5062004;28;20080;-74
2022/06/25 03:11:17;;;;;;;11.60;8.43;;;17.90;99.90;;;;;;5055431;28;20052;-75
2022/06/25 03:13:44;;;;;;;11.32;8.38;;;17.80;99.90;;;;;;5055204;28;20051;-75
2022/06/25 03:16:12;;;;;;;14.85;9.40;;;17.80;99.90;;;;;;5055110;28;20483;-75
2022/06/25 03:18:40;;;;;;;12.68;9.15;;;17.80;99.90;;;;;;5055155;28;20048;-75
2022/06/25 03:21:27;;;;;;;;;;;17.80;99.90;;;;;;5074040;28;20079;-75
2022/06/25 03:24:07;;;;;;;11.88;8.40;;;17.80;99.90;;;;;;5067502;28;19987;-74
2022/06/25 03:26:44;;;;;;;11.27;8.68;;;17.90;99.90;;;;;;5080536;28;20044;-75
2022/06/25 03:29:12;;;;;;;14.30;8.50;;;17.90;99.90;;;;;;5079626;28;20056;-74
2022/06/25 03:31:40;;;;;;;13.07;8.27;;;17.90;99.90;;;;;;5060652;28;20514;-75
2022/06/25 03:34:28;;;;;;;11.25;8.70;;;18.00;99.90;;;;;;5072452;28;20137;-74
2022/06/25 03:36:57;;;;;;;18.48;9.82;;;18.10;99.90;;;;;;5055292;28;20395;-74
2022/06/25 03:39:25;;;;;;;15.18;9.90;;;18.10;99.90;;;;;;5055187;28;20478;-74
2022/06/25 03:41:53;;;;;;;12.60;9.25;;;18.20;99.90;;;;;;5054801;28;20044;-74
2022/06/25 03:44:36;;;;;;;12.82;8.48;;;18.30;99.90;;;;;;5054839;28;20072;-74
2022/06/25 03:47:22;;;;;;;10.63;9.18;;;18.40;99.90;;;;;;5073840;28;20051;-74
2022/06/25 03:49:49;;;;;;;14.02;8.75;;;18.50;99.90;;;;;;5063371;28;20073;-74
2022/06/25 03:52:19;;;;;;;10.57;9.18;;;18.50;99.90;;;;;;5071854;28;20045;-74
2022/06/25 03:54:47;;;;;;;12.52;9.52;;;18.60;99.90;;;;;;5075384;28;20071;-75
2022/06/25 03:57:15;;;;;;;11.38;8.35;;;18.80;99.90;;;;;;5061637;28;20045;-75
2022/06/25 04:00:09;;;;;;;15.30;7.78;;;19.40;99.90;;;;;;5068826;28;20402;-75
2022/06/25 04:02:40;;;;;;;14.18;8.35;;;20.30;99.90;;;;;;5072669;28;20058;-75
2022/06/25 04:05:36;;;;;;;27.55;10.43;;;21.00;99.90;;;;;;5071806;28;20399;-75
2022/06/25 04:08:21;;;;;;;24.55;9.13;;;21.70;47.60;;;;;;5056615;28;20413;-75
2022/06/25 04:10:51;;;;;;;17.08;8.45;;;22.50;1.00;;;;;;5058589;28;20570;-75
2022/06/25 04:13:18;;;;;;;11.68;7.40;;;23.10;1.00;;;;;;5058348;28;20052;-75
2022/06/25 04:15:45;;;;;;;10.90;7.47;;;23.40;13.40;;;;;;5058679;28;20048;-75
2022/06/25 04:18:15;;;;;;;11.05;7.60;;;23.60;99.90;;;;;;5058676;28;20040;-75
2022/06/25 04:20:42;;;;;;;12.27;7.50;;;24.30;1.00;;;;;;5058514;28;20097;-75
2022/06/25 04:23:10;;;;;;;13.55;6.93;;;25.10;1.00;;;;;;5057945;28;20054;-75
2022/06/25 04:25:39;;;;;;;8.63;6.57;;;25.90;99.90;;;;;;5057871;28;20044;-76
2022/06/25 04:30:53;;;;;;;11.85;6.28;;;27.00;99.90;;;;;;5058318;28;20051;-75
2022/06/25 04:33:20;;;;;;;9.88;7.13;;;27.50;99.90;;;;;;5058291;28;20040;-75
2022/06/25 04:35:59;;;;;;;12.70;7.80;;;26.70;99.90;;;;;;5058030;28;20045;-75
2022/06/25 04:38:50;;;;;;;11.07;7.40;;;25.50;99.90;;;;;;5065392;28;20064;-75
2022/06/25 04:41:19;;;;;;;11.88;7.25;;;24.70;1.00;;;;;;5057870;28;20040;-75
2022/06/25 04:43:50;;;;;;;12.30;7.00;;;24.90;1.00;;;;;;5057785;28;20060;-75
2022/06/25 04:46:23;;;;;;;10.00;6.65;;;25.40;1.00;;;;;;5058146;28;20083;-75
2022/06/25 04:48:52;;;;;;;10.95;6.13;;;25.90;99.90;;;;;;5057562;28;20095;-75
2022/06/25 04:51:28;;;;;;;12.65;7.07;;;26.10;99.90;;;;;;5057419;28;20399;-75
2022/06/25 04:53:56;;;;;;;10.80;7.50;;;25.20;99.90;;;;;;5057304;28;20450;-75
2022/06/25 04:56:51;;;;;;;18.55;8.02;;;24.60;1.00;;;;;;5074402;28;20048;-76
2022/06/25 04:59:18;;;;;;;14.27;7.25;;;25.60;99.90;;;;;;5057599;28;20442;-76
2022/06/25 05:02:06;;;;;;;12.73;7.10;;;26.70;98.50;;;;;;5057958;28;20044;-75
2022/06/25 05:04:48;;;;;;;17.25;6.93;;;27.40;26.30;;;;;;5057619;28;20049;-75
2022/06/25 05:07:15;;;;;;;14.40;7.93;;;27.80;99.90;;;;;;5057315;28;20055;-76
2022/06/25 05:09:43;;;;;;;13.05;6.95;;;28.50;99.90;;;;;;5058971;28;20144;-76
2022/06/25 05:13:11;;;;;;;15.88;7.53;;;29.00;99.90;;;;;;5061008;28;20140;-75
2022/06/25 05:15:01;;;;;;;12.38;6.95;;;29.70;1.00;;;;;;5061278;28;20037;-76
2022/06/25 05:17:30;;;;;;;12.07;7.50;;;30.30;1.00;;;;;;5069697;28;20055;-76
2022/06/25 05:19:57;;;;;;;12.63;7.47;;;30.00;99.90;;;;;;5066186;28;20128;-76
2022/06/25 05:22:24;;;;;;;14.82;7.07;;;29.20;1.00;;;;;;5085829;28;20546;-76
2022/06/25 05:24:52;;;;;;;12.68;7.47;;;29.10;1.00;;;;;;5073872;28;20059;-75
2022/06/25 05:27:23;;;;;;;12.13;6.80;;;29.20;2.20;;;;;;5057016;28;20045;-76
2022/06/25 05:29:50;;;;;;;14.27;7.18;;;29.80;99.90;;;;;;5055914;28;20515;-75
2022/06/25 05:32:17;;;;;;;14.20;7.72;;;30.40;99.90;;;;;;5075957;28;20075;-76
2022/06/25 05:34:44;;;;;;;16.15;9.05;;;30.40;1.00;;;;;;5057173;28;20049;-77
2022/06/25 05:37:12;;;;;;;16.63;8.32;;;29.60;1.00;;;;;;5056922;28;20048;-76
2022/06/25 05:39:40;;;;;;;19.30;8.70;;;28.90;99.90;;;;;;5074738;28;20048;-76
2022/06/25 05:42:07;;;;;;;13.45;8.45;;;28.70;1.00;;;;;;5056467;28;20506;-76
2022/06/25 05:44:36;;;;;;;15.02;9.18;;;29.40;99.90;;;;;;5074786;28;20113;-76
2022/06/25 05:47:03;;;;;;;15.25;8.00;;;30.20;1.00;;;;;;5074451;28;20555;-76
2022/06/25 05:49:30;;;;;;;16.00;8.23;;;31.00;99.90;;;;;;5048394;28;20049;-75
2022/06/25 05:51:58;;;;;;;12.98;7.50;;;31.60;1.00;;;;;;5074295;28;20044;-77
2022/06/25 05:54:25;;;;;;;14.95;8.10;;;32.30;1.00;;;;;;5074955;28;20108;-76
2022/06/25 05:56:52;;;;;;;16.38;8.38;;;32.00;1.00;;;;;;5078290;28;20044;-78
2022/06/25 05:59:20;;;;;;;15.38;8.82;;;31.80;99.90;;;;;;5080375;28;20048;-76
2022/06/25 06:01:48;;;;;;;19.10;9.05;;;31.70;22.20;;;;;;5064564;28;20094;-75
2022/06/25 06:04:15;;;;;;;21.98;10.00;;;31.00;99.90;;;;;;5081244;28;20560;-76
2022/06/25 06:06:43;;;;;;;21.85;9.35;;;30.00;99.90;;;;;;5079857;28;20564;-76
2022/06/25 06:09:10;;;;;;;16.65;9.15;;;29.10;1.00;;;;;;5079480;28;20467;-76
2022/06/25 06:11:38;;;;;;;17.73;8.65;;;28.50;99.90;;;;;;5057086;28;20046;-77
2022/06/25 06:14:05;;;;;;;19.63;8.27;;;28.60;1.00;;;;;;5055874;28;20094;-77
2022/06/25 06:16:33;;;;;;;15.48;8.52;;;28.90;1.00;;;;;;5074092;28;20064;-76
2022/06/25 06:19:01;;;;;;;16.23;8.52;;;28.60;1.00;;;;;;5073253;28;20040;-76
2022/06/25 06:21:29;;;;;;;16.95;8.10;;;28.40;99.90;;;;;;5073735;28;20041;-76
2022/06/25 06:23:56;;;;;;;19.60;9.23;;;28.10;1.00;;;;;;5073423;28;20449;-76
2022/06/25 06:26:23;;;;;;;21.85;8.43;;;28.60;1.00;;;;;;5072916;28;20082;-76
2022/06/25 06:28:51;;;;;;;18.48;8.45;;;29.20;27.10;;;;;;5073158;28;20123;-75
2022/06/25 06:31:18;;;;;;;19.55;9.93;;;28.70;99.90;;;;;;5075035;28;20075;-74
2022/06/25 06:33:45;;;;;;;19.05;9.52;;;29.10;1.00;;;;;;5081558;28;20123;-76
2022/06/25 06:36:14;;;;;;;25.98;17.02;;;29.50;69.90;;;;;;5079352;28;20098;-76
2022/06/25 06:38:42;;;;;;;21.00;11.80;;;29.90;99.90;;;;;;5093899;28;20476;-76
2022/06/25 06:41:11;;;;;;;18.60;12.77;;;29.70;99.90;;;;;;5092436;28;20512;-76
2022/06/25 06:43:39;;;;;;;20.25;10.20;;;29.20;99.90;;;;;;5092110;28;20053;-76
2022/06/25 06:46:06;;;;;;;18.90;10.20;;;29.20;99.90;;;;;;5075026;28;20450;-77
2022/06/25 06:48:33;;;;;;;22.83;9.15;;;29.00;99.90;;;;;;5073461;28;20047;-76
2022/06/25 06:51:01;;;;;;;23.48;9.68;;;28.90;99.90;;;;;;5055142;28;20072;-75
2022/06/25 06:53:29;;;;;;;20.88;8.82;;;28.90;99.90;;;;;;5073235;28;20044;-77
2022/06/25 06:55:57;;;;;;;16.85;9.88;;;29.00;99.90;;;;;;5073101;28;20098;-77
2022/06/25 06:58:24;;;;;;;22.60;8.40;;;28.70;99.90;;;;;;5073497;28;20033;-77
2022/06/25 07:00:51;;;;;;;21.02;9.13;;;28.70;99.90;;;;;;5054723;28;20143;-77
2022/06/25 07:03:18;;;;;;;21.83;9.88;;;28.60;99.90;;;;;;5054090;28;20037;-77
2022/06/25 07:05:46;;;;;;;22.67;9.43;;;28.40;99.90;;;;;;5035217;28;20506;-76
2022/06/25 07:08:22;;;;;;;22.30;10.65;;;28.70;99.90;;;;;;5036040;28;20053;-76
2022/06/25 07:10:51;;;;;;;24.00;9.93;;;29.10;99.90;;;;;;5054174;28;20051;-76
2022/06/25 07:13:18;;;;;;;20.52;9.50;;;29.10;99.90;;;;;;5067521;28;20032;-76
2022/06/25 07:15:46;;;;;;;22.02;9.75;;;29.40;99.90;;;;;;5061923;28;20053;-76
2022/06/25 07:18:13;;;;;;;23.48;10.05;;;29.90;99.90;;;;;;5064957;28;20086;-76
2022/06/25 07:20:40;;;;;;;34.10;9.15;;;30.20;1.00;;;;;;5075903;28;20091;-77
2022/06/25 07:23:08;;;;;;;24.80;9.60;;;30.40;1.00;;;;;;5079827;28;20037;-77
2022/06/25 07:25:35;;;;;;;19.48;8.52;;;29.90;1.00;;;;;;5087582;28;20040;-77
2022/06/25 07:28:04;;;;;;;20.27;10.38;;;30.10;1.00;;;;;;5090163;28;20037;-77
2022/06/25 07:30:32;;;;;;;21.77;9.10;;;30.40;1.00;;;;;;5078542;28;20097;-76
2022/06/25 07:32:59;;;;;;;21.08;9.05;;;30.60;1.00;;;;;;5075723;28;20045;-76
2022/06/25 07:35:26;;;;;;;21.85;9.35;;;30.60;1.00;;;;;;5072479;28;20102;-77
2022/06/25 07:37:54;;;;;;;19.73;9.77;;;30.80;1.00;;;;;;5055451;28;20041;-76
2022/06/25 07:40:22;;;;;;;22.15;10.93;;;31.10;99.90;;;;;;5071945;28;20491;-76
2022/06/25 07:42:49;;;;;;;21.25;9.88;;;31.20;1.00;;;;;;5073347;28;20047;-75
2022/06/25 07:45:18;;;;;;;26.38;10.32;;;31.40;1.00;;;;;;5076879;28;20053;-76
2022/06/25 07:47:45;;;;;;;19.95;8.90;;;31.70;99.90;;;;;;5075951;28;20121;-77
2022/06/25 07:53:12;;;;;;;24.45;9.18;;;32.20;1.00;;;;;;4994860;28;20055;-76
2022/06/25 07:55:39;;;;;;;18.38;8.23;;;32.30;1.00;;;;;;4994883;28;20477;-76
2022/06/25 07:58:07;;;;;;;16.77;7.47;;;32.50;1.00;;;;;;5030080;28;20068;-75
2022/06/25 08:00:35;;;;;;;23.48;6.03;;;32.50;99.90;;;;;;5076328;28;20057;-76
2022/06/25 08:03:03;;;;;;;19.42;6.35;;;32.30;99.90;;;;;;5071542;28;20151;-75
2022/06/25 08:05:30;;;;;;;19.60;7.00;;;31.90;1.00;;;;;;5075342;28;20045;-77
2022/06/25 08:07:58;;;;;;;20.67;8.35;;;31.40;1.00;;;;;;5163952;22;20075;-77
2022/06/25 08:10:25;;;;;;;18.42;7.97;;;31.00;1.00;;;;;;5157595;27;20070;-77
2022/06/25 08:12:52;;;;;;;22.38;8.30;;;30.80;1.00;;;;;;5157918;27;20456;-76
2022/06/25 08:15:20;;;;;;;17.55;7.75;;;30.60;99.90;;;;;;5157840;27;20469;-76
2022/06/25 08:17:48;;;;;;;19.92;7.80;;;30.70;99.90;;;;;;5143504;27;20046;-76
2022/06/25 08:20:16;;;;;;;21.42;8.30;;;31.00;99.90;;;;;;5128187;27;20044;-77
2022/06/25 08:22:43;;;;;;;28.25;10.85;;;31.20;1.00;;;;;;5130711;27;20039;-77
2022/06/25 08:25:10;;;;;;;19.80;9.32;;;31.40;99.90;;;;;;5132749;27;20051;-77
2022/06/25 08:27:46;;;;;;;23.33;9.00;;;31.40;1.00;;;;;;5158854;27;20396;-77
2022/06/25 08:30:13;;;;;;;23.42;8.10;;;31.50;1.00;;;;;;5148549;27;20118;-77
2022/06/25 08:32:40;;;;;;;19.25;9.98;;;31.60;1.00;;;;;;5134007;27;20509;-76
2022/06/25 08:35:10;;;;;;;21.52;10.05;;;31.70;1.00;;;;;;5137687;27;20058;-77
2022/06/25 08:37:38;;;;;;;28.70;8.75;;;31.90;1.00;;;;;;5139816;27;20070;-78
2022/06/25 08:40:07;;;;;;;21.30;7.82;;;32.20;1.00;;;;;;5138839;27;20118;-78
2022/06/25 08:42:35;;;;;;;18.40;7.88;;;32.50;1.00;;;;;;5138089;27;20092;-77
2022/06/25 08:45:03;;;;;;;22.90;7.90;;;32.50;1.00;;;;;;5137059;27;20043;-78
2022/06/25 08:47:30;;;;;;;16.23;7.50;;;31.90;1.00;;;;;;5134940;27;20093;-77
2022/06/25 08:49:59;;;;;;;18.63;8.00;;;31.70;1.00;;;;;;5137402;27;20071;-79
2022/06/25 08:52:28;;;;;;;17.90;7.97;;;31.80;1.00;;;;;;5128377;27;20047;-77
2022/06/25 08:54:56;;;;;;;18.08;7.97;;;32.00;1.00;;;;;;5114655;28;20047;-76
2022/06/25 08:57:24;;;;;;;18.50;9.32;;;32.30;1.00;;;;;;5098362;28;20047;-77
2022/06/25 08:59:51;;;;;;;21.77;7.70;;;32.70;1.00;;;;;;5131120;27;20047;-78
2022/06/25 09:02:18;;;;;;;18.00;6.38;;;33.10;1.00;;;;;;5138094;27;20066;-75
2022/06/25 09:04:45;;;;;;;16.48;6.82;;;33.20;99.90;;;;;;5137052;27;20039;-76
2022/06/25 09:07:15;;;;;;;18.88;6.90;;;33.20;16.60;;;;;;5133923;27;20108;-77
2022/06/25 09:09:49;;;;;;;17.38;6.70;;;33.20;77.80;;;;;;5137105;27;20047;-75
2022/06/25 09:12:19;;;;;;;27.70;8.23;;;33.10;1.00;;;;;;5137175;27;20405;-77
2022/06/25 09:14:47;;;;;;;20.02;7.65;;;33.20;99.90;;;;;;5136969;27;20379;-78
2022/06/25 09:17:15;;;;;;;22.05;8.40;;;33.10;1.00;;;;;;5138247;27;20069;-77
2022/06/25 09:19:45;;;;;;;19.52;6.95;;;33.30;22.70;;;;;;5118670;27;20108;-77
2022/06/25 09:22:13;;;;;;;21.35;10.85;;;33.90;1.00;;;;;;5136946;27;20489;-77
2022/06/25 09:24:43;;;;;;;20.70;7.50;;;34.10;1.00;;;;;;5118413;27;20133;-76
2022/06/25 09:27:12;;;;;;;22.27;7.15;;;33.80;99.90;;;;;;5118263;27;20055;-78
2022/06/25 09:29:42;;;;;;;22.80;7.63;;;33.80;1.00;;;;;;5137029;27;20066;-77
2022/06/25 09:32:10;;;;;;;19.38;6.90;;;34.10;1.00;;;;;;5136836;27;20045;-76
2022/06/25 09:34:39;;;;;;;16.35;7.30;;;34.80;99.90;;;;;;5117860;27;20043;-77
2022/06/25 09:37:23;;;;;;;27.23;7.38;;;35.10;1.00;;;;;;5136557;27;20050;-77
2022/06/25 09:39:51;;;;;;;25.27;8.27;;;35.10;99.90;;;;;;5135256;27;20051;-78
2022/06/25 09:42:26;;;;;;;19.08;6.93;;;34.60;99.90;;;;;;5136363;27;20039;-78
2022/06/25 09:45:04;;;;;;;;;;;34.20;1.00;;;;;;5137354;27;20035;-77
2022/06/25 09:47:34;;;;;;;21.67;6.03;;;33.90;79.80;;;;;;5140698;27;19927;-77
2022/06/25 09:50:07;;;;;;;22.80;6.80;;;33.70;99.90;;;;;;5144287;27;20039;-77
2022/06/25 09:52:36;;;;;;;27.42;6.43;;;33.70;1.00;;;;;;5143885;27;20039;-77
2022/06/25 09:55:03;;;;;;;18.08;5.68;;;33.50;99.90;;;;;;5143006;27;20378;-77
2022/06/25 09:57:33;;;;;;;24.45;6.82;;;33.00;1.00;;;;;;5124949;27;20129;-77
2022/06/25 10:00:01;;;;;;;20.23;7.80;;;33.20;99.90;;;;;;5124446;27;20043;-77
2022/06/25 10:02:37;;;;;;;22.77;6.25;;;33.40;1.00;;;;;;5139157;27;20130;-78
2022/06/25 10:05:05;;;;;;;24.85;6.85;;;33.80;1.00;;;;;;5136522;27;20039;-77
2022/06/25 10:10:19;;;;;;;;;;;33.90;99.90;;;;;;5137126;27;20039;-79
2022/06/25 10:12:49;;;;;;;21.35;7.28;;;34.10;1.00;;;;;;5136507;27;19920;-77
2022/06/25 10:15:18;;;;;;;19.40;6.85;;;34.40;1.00;;;;;;5136556;27;20047;-76
2022/06/25 10:17:46;;;;;;;25.23;9.80;;;34.70;1.00;;;;;;5136415;27;20061;-77
2022/06/25 10:20:14;;;;;;;19.50;6.03;;;34.60;1.00;;;;;;5137403;27;20062;-77
2022/06/25 10:22:42;;;;;;;25.50;7.30;;;34.50;1.00;;;;;;5139737;27;20050;-76
2022/06/25 10:25:11;;;;;;;23.45;5.93;;;34.40;1.00;;;;;;5140814;27;20068;-77
2022/06/25 10:27:40;;;;;;;16.98;6.30;;;34.30;1.00;;;;;;5141575;27;20131;-77
2022/06/25 10:30:10;;;;;;;24.17;8.80;;;34.60;99.90;;;;;;5123795;27;20486;-78
2022/06/25 10:32:45;;;;;;;26.05;6.20;;;35.00;99.90;;;;;;5143345;27;20051;-79
2022/06/25 10:35:28;;;;;;;20.05;6.28;;;35.40;99.90;;;;;;5142690;27;20043;-74
2022/06/25 10:38:06;;;;;;;23.40;6.65;;;34.90;1.00;;;;;;5143314;27;20526;-76
2022/06/25 10:40:45;;;;;;;17.20;5.47;;;34.70;38.30;;;;;;5147240;27;20035;-75
2022/06/25 10:43:53;;;;;;;23.48;6.90;;;34.30;1.00;;;;;;5140296;27;20043;-75
2022/06/25 10:46:24;;;;;;;16.60;5.95;;;33.90;1.00;;;;;;5118464;27;20129;-73
2022/06/25 10:48:53;;;;;;;16.92;5.80;;;33.40;99.90;;;;;;5136024;27;20058;-75
2022/06/25 10:51:31;;;;;;;18.13;6.18;;;32.90;1.00;;;;;;5136635;27;20401;-74
2022/06/25 10:53:59;;;;;;;19.33;4.93;;;32.80;58.70;;;;;;5135370;27;20047;-74
2022/06/25 10:56:26;;;;;;;16.25;5.80;;;32.50;99.90;;;;;;5135254;27;20047;-74
2022/06/25 10:58:55;;;;;;;21.70;6.10;;;32.10;99.90;;;;;;5135793;27;20068;-73
2022/06/25 11:01:34;;;;;;;16.95;5.43;;;32.20;99.90;;;;;;5135412;27;20039;-73
2022/06/25 11:04:07;;;;;;;15.32;5.72;;;32.20;1.00;;;;;;5135489;27;20501;-75
2022/06/25 11:06:40;;;;;;;16.15;5.97;;;32.30;1.00;;;;;;5135759;27;20508;-78
2022/06/25 11:09:16;;;;;;;22.92;6.25;;;31.70;1.00;;;;;;5116989;27;20043;-75
2022/06/25 11:11:46;;;;;;;21.17;5.95;;;31.80;1.00;;;;;;5136154;27;20055;-76
2022/06/25 11:14:16;;;;;;;17.63;7.03;;;31.90;1.00;;;;;;5134980;27;20069;-76
2022/06/25 11:16:45;;;;;;;20.25;5.85;;;32.00;1.00;;;;;;5136151;27;20047;-75
2022/06/25 11:19:12;;;;;;;16.65;6.25;;;31.90;1.00;;;;;;5134797;28;20443;-74
2022/06/25 11:21:42;;;;;;;19.73;5.82;;;32.40;1.00;;;;;;5136186;28;20095;-78
2022/06/25 11:24:18;;;;;;;21.83;5.97;;;32.80;1.00;;;;;;5134899;28;20100;-74
2022/06/25 11:29:37;;;;;;;19.00;5.95;;;33.20;1.00;;;;;;5138102;28;20035;-76
2022/06/25 11:32:06;;;;;;;21.40;7.10;;;33.20;1.00;;;;;;5130619;28;20470;-77
2022/06/25 11:34:34;;;;;;;15.98;6.03;;;33.20;1.00;;;;;;5150962;28;20061;-75
2022/06/25 11:37:08;;;;;;;18.38;5.95;;;33.20;1.00;;;;;;5153226;28;20055;-78
2022/06/25 11:39:38;;;;;;;15.52;5.57;;;32.80;1.00;;;;;;5154358;28;20065;-75
2022/06/25 11:42:09;;;;;;;18.92;5.75;;;32.50;1.00;;;;;;5121481;28;20066;-76
2022/06/25 11:44:41;;;;;;;20.02;6.10;;;32.70;1.00;;;;;;5136654;28;20040;-76
2022/06/25 11:47:12;;;;;;;21.52;6.30;;;32.40;1.00;;;;;;5135610;28;20039;-76
2022/06/25 11:49:43;;;;;;;23.25;8.65;;;32.80;99.90;;;;;;5135568;28;20039;-76
2022/06/25 11:52:11;;;;;;;23.35;7.80;;;33.10;1.00;;;;;;5117225;28;20122;-78
2022/06/25 11:54:40;;;;;;;22.60;7.68;;;33.20;1.00;;;;;;5134779;28;20436;-79
2022/06/25 11:57:09;;;;;;;18.50;5.78;;;33.00;1.00;;;;;;5134649;28;20043;-76
2022/06/25 11:59:38;;;;;;;27.73;8.30;;;33.00;99.90;;;;;;5134330;28;20038;-77
2022/06/25 12:02:07;;;;;;;22.30;8.52;;;32.80;99.90;;;;;;5135241;28;20047;-76
2022/06/25 12:04:51;;;;;;;17.73;6.00;;;32.70;99.30;;;;;;5116104;28;20055;-75
2022/06/25 12:07:19;;;;;;;25.75;6.22;;;32.70;99.90;;;;;;5134464;28;20118;-77
2022/06/25 12:09:48;;;;;;;25.35;6.38;;;32.60;1.00;;;;;;5116014;28;20452;-76
2022/06/25 12:12:17;;;;;;;24.17;7.30;;;32.50;99.90;;;;;;5134326;28;20050;-75
2022/06/25 12:14:44;;;;;;;22.98;7.28;;;32.50;1.00;;;;;;5135203;28;20116;-78
2022/06/25 12:17:12;;;;;;;19.33;6.70;;;32.50;99.90;;;;;;5134960;28;20058;-75
2022/06/25 12:19:48;;;;;;;24.58;6.10;;;32.40;27.90;;;;;;5134496;28;20451;-77
2022/06/25 12:22:24;;;;;;;22.85;7.53;;;32.40;1.00;;;;;;5134730;28;20035;-78
2022/06/25 12:24:52;;;;;;;27.13;8.48;;;32.60;1.00;;;;;;5134137;28;20068;-75
2022/06/25 12:27:20;;;;;;;18.80;7.47;;;32.60;1.00;;;;;;5134563;28;20044;-76
2022/06/25 12:29:49;;;;;;;20.27;5.80;;;33.00;99.90;;;;;;5119182;27;20443;-77
2022/06/25 12:32:16;;;;;;;19.02;5.80;;;33.10;1.00;;;;;;5138790;27;20406;-76
2022/06/25 12:34:50;;;;;;;20.50;5.70;;;33.00;1.00;;;;;;5139057;27;20047;-77
2022/06/25 12:37:30;;;;;;;15.68;5.55;;;32.60;1.00;;;;;;5138983;27;20096;-79
2022/06/25 12:39:59;;;;;;;20.48;6.35;;;32.60;1.00;;;;;;5138237;27;20092;-82
2022/06/25 12:42:28;;;;;;;25.83;6.88;;;32.70;1.00;;;;;;5139731;27;20043;-77
2022/06/25 12:44:57;;;;;;;21.83;8.05;;;33.10;99.90;;;;;;5138939;27;20043;-76
2022/06/25 12:47:24;;;;;;;18.52;8.15;;;33.40;40.30;;;;;;5142074;27;20103;-76
2022/06/25 12:49:55;;;;;;;20.77;7.50;;;33.60;1.00;;;;;;5140904;27;20508;-77
2022/06/25 12:52:24;;;;;;;20.05;7.40;;;33.40;99.90;;;;;;5137809;27;20402;-78
2022/06/25 12:54:52;;;;;;;23.98;6.53;;;33.30;99.90;;;;;;5119003;27;20430;-77
2022/06/25 12:57:30;;;;;;;17.48;6.18;;;33.40;99.90;;;;;;5137033;27;20067;-77
2022/06/25 12:59:58;;;;;;;15.40;5.38;;;33.50;1.00;;;;;;5137603;27;20047;-77
2022/06/25 13:02:26;;;;;;;23.42;6.88;;;33.30;99.90;;;;;;5138050;27;20039;-75
2022/06/25 13:04:55;;;;;;;22.50;6.68;;;33.20;99.90;;;;;;5137747;27;20047;-76
2022/06/25 13:07:22;;;;;;;23.27;5.93;;;33.50;1.00;;;;;;5136783;27;20071;-76
2022/06/25 13:09:50;;;;;;;20.73;6.97;;;33.40;1.00;;;;;;5137612;27;20513;-76
2022/06/25 13:12:18;;;;;;;26.17;12.13;;;33.10;1.00;;;;;;5121494;27;20405;-77
2022/06/25 13:14:45;;;;;;;21.35;6.72;;;33.20;1.00;;;;;;5115337;28;20047;-76
2022/06/25 13:17:12;;;;;;;18.20;6.22;;;33.50;1.00;;;;;;5115366;28;20059;-76